Arthur, West Virginia
Current Conditions -  °F | °C
As of 2:35 PM on Saturday 25 Oct 2014 (Local Time) from KW99 Reporting Station
Clear Clear  
Wind Chill: 71°   Ceiling: Unl
Heat Index: 71°   Visibility: 10mi
Dew Point: 33°   Wind: 6mph
Humidity: 25%   Direction: 250°WSW
Pressure: 29.86"   Gusts: 16mph
Location:  38.9337°N, 79.1435°W
Report Text: KW99 251835Z AUTO 25005G14KT 10SM CLR 22/01 A2986 RMK AO2 T02150008
Loading
Personal Weather Stations






























Interactive Weather Map
Tropical Storm Tracking
New forecast layout! Learn more

10-Day Weather Forecast

Advertisements
Track Severe Weather on mobile